createdAt,value
2017-06-03T00:00:18.513Z,59.35
2017-06-03T00:01:28.559Z,59.35
2017-06-03T00:02:38.913Z,59.45
2017-06-03T00:03:49.297Z,59.64
2017-06-03T00:04:59.343Z,59.45
2017-06-03T00:06:09.395Z,59.55
2017-06-03T00:07:19.750Z,59.35
2017-06-03T00:08:30.124Z,59.35
2017-06-03T00:09:39.866Z,59.55
2017-06-03T00:10:50.214Z,59.45
2017-06-03T00:12:00.565Z,59.35
2017-06-03T00:13:10.298Z,59.55
2017-06-03T00:14:20.638Z,59.35
2017-06-03T00:15:30.695Z,59.55
2017-06-03T00:16:41.060Z,59.35
2017-06-03T00:17:51.417Z,59.25
2017-06-03T00:19:01.463Z,59.35
2017-06-03T00:20:11.511Z,59.45
2017-06-03T00:21:21.550Z,59.74
2017-06-03T00:22:31.914Z,59.64
2017-06-03T00:23:42.267Z,59.64
2017-06-03T00:24:52.624Z,59.74
2017-06-03T00:26:02.668Z,59.83
2017-06-03T00:27:13.063Z,59.74
2017-06-03T00:28:23.103Z,59.35
2017-06-03T00:29:33.459Z,59.45
2017-06-03T00:30:43.821Z,60.03
2017-06-03T00:31:54.166Z,60.03
2017-06-03T00:33:04.290Z,59.93
2017-06-03T00:34:14.623Z,60.03
2017-06-03T00:35:24.970Z,59.83
2017-06-03T00:36:35.002Z,59.83
2017-06-03T00:37:45.044Z,59.74
2017-06-03T00:38:55.389Z,59.71
2017-06-03T00:40:05.749Z,59.55
2017-06-03T00:41:16.094Z,59.93
2017-06-03T00:42:26.150Z,59.83
2017-06-03T00:43:36.503Z,59.8
2017-06-03T00:44:46.599Z,59.8
2017-06-03T00:45:56.967Z,59.23
2017-06-03T00:47:06.700Z,59.32
2017-06-03T00:48:17.047Z,59.61
2017-06-03T00:49:27.085Z,59.45
2017-06-03T00:50:37.477Z,59.32
2017-06-03T00:51:47.519Z,59.61
2017-06-03T00:52:57.552Z,59.61
2017-06-03T00:54:07.587Z,59.61
2017-06-03T00:55:17.310Z,59.61
2017-06-03T00:56:27.363Z,59.71
2017-06-03T00:57:37.713Z,59.9
2017-06-03T00:58:47.765Z,59.8
2017-06-03T00:59:58.111Z,59.71
2017-06-03T01:01:08.459Z,59.52
2017-06-03T01:02:18.867Z,59.9
2017-06-03T01:03:29.232Z,59.52
2017-06-03T01:04:39.588Z,59.42
2017-06-03T01:05:49.625Z,59.42
2017-06-03T01:06:59.985Z,59.32
2017-06-03T01:08:10.421Z,59.42
2017-06-03T01:09:20.670Z,59.2
2017-06-03T01:10:30.703Z,59.68
2017-06-03T01:11:41.040Z,59.68
2017-06-03T01:12:51.390Z,59.48
2017-06-03T01:14:01.794Z,59.58
2017-06-03T01:15:11.507Z,59.78
2017-06-03T01:16:21.851Z,59.78
2017-06-03T01:17:31.894Z,59.78
2017-06-03T01:18:42.259Z,59.3
2017-06-03T01:19:52.669Z,59.39
2017-06-03T01:21:03.010Z,59.39
2017-06-03T01:22:13.352Z,59.3
2017-06-03T01:23:23.708Z,59.3
2017-06-03T01:24:33.751Z,59.3
2017-06-03T01:25:44.098Z,59.3
2017-06-03T01:26:54.451Z,59.3
2017-06-03T01:28:04.489Z,59.58
2017-06-03T01:29:14.833Z,59.58
2017-06-03T01:30:25.203Z,59.48
2017-06-03T01:31:35.284Z,59.2
2017-06-03T01:32:45.667Z,59.3
2017-06-03T01:33:55.720Z,59.39
2017-06-03T01:35:06.060Z,59.39
2017-06-03T01:36:16.412Z,59.3
2017-06-03T01:37:26.743Z,59.17
2017-06-03T01:38:37.310Z,59.75
2017-06-03T01:39:47.670Z,59.78
2017-06-03T01:40:57.394Z,59.48
2017-06-03T01:42:07.741Z,59.36
2017-06-03T01:43:17.834Z,59.27
2017-06-03T01:44:27.570Z,59.55
2017-06-03T01:45:37.923Z,59.36
2017-06-03T01:46:47.968Z,59.36
2017-06-03T01:47:58.334Z,59.55
2017-06-03T01:49:08.731Z,59.27
2017-06-03T01:50:19.080Z,59.55
2017-06-03T01:51:28.808Z,59.55
2017-06-03T01:52:39.169Z,59.45
2017-06-03T01:53:49.534Z,59.27
2017-06-03T01:54:59.882Z,59.45
2017-06-03T01:56:10.241Z,59.45
2017-06-03T01:57:20.272Z,59.36
2017-06-03T01:58:29.991Z,59.27
2017-06-03T01:59:40.071Z,59.36
2017-06-03T02:00:50.099Z,59.36
2017-06-03T02:02:00.453Z,59.36
2017-06-03T02:03:10.507Z,59.27
2017-06-03T02:04:20.847Z,59.27
2017-06-03T02:05:30.976Z,59.45
2017-06-03T02:06:41.527Z,59.55
2017-06-03T02:07:51.882Z,59.75
2017-06-03T02:09:01.929Z,59.75
2017-06-03T02:10:12.283Z,59.94
2017-06-03T02:11:22.334Z,59.94
2017-06-03T02:12:32.428Z,60.13
2017-06-03T02:13:42.784Z,59.94
2017-06-03T02:14:52.815Z,60.32
2017-06-03T02:16:02.862Z,59.84
2017-06-03T02:17:13.260Z,60.03
2017-06-03T02:18:23.619Z,60.03
2017-06-03T02:19:33.663Z,60.32
2017-06-03T02:20:44.010Z,60.03
2017-06-03T02:21:54.356Z,60.03
2017-06-03T02:23:04.762Z,59.84
2017-06-03T02:24:15.123Z,59.84
2017-06-03T02:25:25.462Z,59.75
2017-06-03T02:26:35.813Z,59.84
2017-06-03T02:27:46.169Z,59.36
2017-06-03T02:28:56.694Z,59.55
2017-06-03T02:30:06.740Z,59.27
2017-06-03T02:31:16.795Z,59.45
2017-06-03T02:32:26.846Z,59.45
2017-06-03T02:33:37.185Z,59.27
2017-06-03T02:34:47.601Z,59.65
2017-06-03T02:35:57.939Z,59.75
2017-06-03T02:37:08.306Z,59.75
2017-06-03T02:38:18.345Z,59.84
2017-06-03T02:39:28.377Z,59.84
2017-06-03T02:40:38.475Z,59.65
2017-06-03T02:41:48.825Z,59.45
2017-06-03T02:42:59.170Z,59.55
2017-06-03T02:44:09.534Z,59.55
2017-06-03T02:45:19.861Z,59.45
2017-06-03T02:46:30.280Z,59.75
2017-06-03T02:47:40.011Z,59.65
2017-06-03T02:48:50.361Z,59.65
2017-06-03T02:50:00.421Z,59.55
2017-06-03T02:51:10.463Z,59.55
2017-06-03T02:52:20.539Z,59.75
2017-06-03T02:53:30.575Z,59.94
2017-06-03T02:54:40.620Z,59.94
2017-06-03T02:55:50.971Z,59.55
2017-06-03T02:57:01.338Z,59.65
2017-06-03T02:58:11.737Z,59.45
2017-06-03T02:59:21.774Z,59.55
2017-06-03T03:00:32.132Z,59.65
2017-06-03T03:01:42.170Z,59.55
2017-06-03T03:33:55.599Z,56.52
2017-06-03T03:35:05.943Z,57
2017-06-03T03:36:16.292Z,57.97
2017-06-03T03:37:26.331Z,58.45
2017-06-03T03:38:36.342Z,59.31
2017-06-03T03:39:46.736Z,59.22
2017-06-03T03:40:56.766Z,59.12
2017-06-03T03:42:06.797Z,59.72
2017-06-03T03:43:16.832Z,59.92
2017-06-03T03:44:26.547Z,60.11
2017-06-03T03:45:36.948Z,60.24
2017-06-03T03:46:46.989Z,60.52
2017-06-03T03:47:57.335Z,59.85
2017-06-03T03:49:07.682Z,60.17
2017-06-03T03:50:17.729Z,60.07
2017-06-03T03:51:28.122Z,60
2017-06-03T03:52:38.174Z,60
2017-06-03T03:53:48.211Z,59.43
2017-06-03T03:54:58.557Z,59.65
2017-06-03T03:56:09.129Z,59.45
2017-06-03T03:57:19.532Z,59.36
2017-06-03T03:58:29.899Z,59.45
2017-06-03T03:59:40.251Z,59.3
2017-06-03T04:00:50.602Z,59.3
2017-06-03T04:02:00.958Z,59.58
2017-06-03T04:03:11.363Z,59.3
2017-06-03T04:04:21.705Z,59.42
2017-06-03T04:05:32.058Z,59.42
2017-06-03T04:06:42.405Z,59.25
2017-06-03T04:07:52.123Z,59.25
2017-06-03T04:09:02.184Z,59.16
2017-06-03T04:10:12.532Z,58.97
2017-06-03T04:11:22.888Z,58.77
2017-06-03T04:12:32.942Z,59.16
2017-06-03T04:13:43.296Z,58.7
2017-06-03T04:14:53.409Z,58.8
2017-06-03T04:16:03.758Z,58.9
2017-06-03T04:17:13.795Z,58.8
2017-06-03T04:18:24.143Z,57.48
2017-06-03T04:19:34.496Z,56.57
2017-06-03T04:20:44.859Z,55.3
2017-06-03T04:21:54.589Z,54.19
2017-06-03T04:23:04.960Z,53.69
2017-06-03T04:24:14.978Z,53.74
2017-06-03T04:25:25.040Z,53.77
2017-06-03T04:26:35.403Z,53.14
2017-06-03T04:27:45.754Z,53.06
2017-06-03T04:28:55.183Z,52.99
2017-06-03T04:30:05.217Z,53.11
2017-06-03T04:31:15.565Z,53.53
2017-06-03T04:32:25.917Z,54.14
2017-06-03T04:33:35.950Z,54.07
2017-06-03T04:34:46.297Z,54
2017-06-03T04:35:56.658Z,54
2017-06-03T04:37:06.991Z,53.83
2017-06-03T04:38:17.359Z,54.03
2017-06-03T04:39:27.702Z,54.35
2017-06-03T04:40:38.041Z,54.25
2017-06-03T04:41:47.768Z,54.38
2017-06-03T04:42:58.115Z,54.57
2017-06-03T04:44:08.468Z,54.4
2017-06-03T04:45:18.824Z,54.79
2017-06-03T04:46:28.866Z,54.4
2017-06-03T04:47:39.222Z,53.94
2017-06-03T04:48:49.570Z,54.91
2017-06-03T04:49:59.977Z,54.43
2017-06-03T04:51:10.336Z,54.43
2017-06-03T04:52:20.707Z,54.06
2017-06-03T04:53:31.046Z,53.96
2017-06-03T04:54:41.392Z,53.77
2017-06-03T04:55:51.749Z,54.25
2017-06-03T04:57:02.099Z,54.16
2017-06-03T04:58:12.443Z,54.19
2017-06-03T04:59:22.815Z,54.19
2017-06-03T05:00:32.861Z,53.99
2017-06-03T05:01:42.968Z,54.28
2017-06-03T05:02:53.339Z,54.19
2017-06-03T05:04:03.692Z,54.09
2017-06-03T05:05:13.732Z,53.89
2017-06-03T05:06:24.095Z,54.11
2017-06-03T05:07:34.487Z,54.41
2017-06-03T05:08:44.845Z,54.19
2017-06-03T05:09:54.889Z,54.19
2017-06-03T05:11:04.937Z,54.11
2017-06-03T05:12:15.305Z,53.92
2017-06-03T05:13:25.406Z,54.31
2017-06-03T05:14:35.449Z,54.04
2017-06-03T05:15:45.824Z,53.75
2017-06-03T05:16:55.866Z,53.45
2017-06-03T05:18:05.903Z,53.65
2017-06-03T05:19:16.308Z,53.67
2017-06-03T05:20:26.676Z,53.67
2017-06-03T05:21:36.730Z,53.87
2017-06-03T05:22:47.090Z,53.38
2017-06-03T05:23:57.135Z,53.19
2017-06-03T05:25:07.491Z,52.82
2017-06-03T05:26:17.849Z,53.5
2017-06-03T05:27:28.214Z,53.7
2017-06-03T05:28:38.564Z,53.21
2017-06-03T05:29:48.600Z,53.92
2017-06-03T05:30:58.647Z,54.17
2017-06-03T05:32:09.004Z,56.03
2017-06-03T05:33:19.386Z,56.9
2017-06-03T05:34:29.431Z,56.46
2017-06-03T05:35:39.795Z,57.7
2017-06-03T05:36:50.164Z,56.6
2017-06-03T05:38:00.509Z,56.92
2017-06-03T05:39:10.880Z,58.33
2017-06-03T05:40:21.229Z,57.88
2017-06-03T05:41:31.582Z,58.07
2017-06-03T05:42:41.622Z,58.7
2017-06-03T05:43:51.971Z,57.73
2017-06-03T05:45:02.030Z,57.73
2017-06-03T05:46:12.395Z,56.43
2017-06-03T05:47:22.818Z,54.56
2017-06-03T05:48:33.179Z,53.66
2017-06-03T05:49:43.542Z,53.91
2017-06-03T05:50:53.898Z,53.39
2017-06-03T05:52:03.945Z,53.45
2017-06-03T05:53:13.971Z,53.38
2017-06-03T05:54:24.070Z,53.5
2017-06-03T05:55:34.440Z,53.5
2017-06-03T05:56:44.806Z,53.63
2017-06-03T05:57:55.169Z,53.53
2017-06-03T05:59:05.524Z,53.43
2017-06-03T06:00:15.933Z,53.06
2017-06-03T06:01:26.279Z,53.33
2017-06-03T06:02:36.644Z,53.72
2017-06-03T06:03:46.680Z,53.92
2017-06-03T06:04:56.433Z,54.5
2017-06-03T06:06:06.539Z,54.31
2017-06-03T06:07:16.586Z,53.82
2017-06-03T06:08:27.160Z,54.11
2017-06-03T06:09:37.506Z,54.11
2017-06-03T06:10:47.552Z,54.02
2017-06-03T06:11:57.949Z,54.21
2017-06-03T06:13:08.314Z,54.7
2017-06-03T06:14:18.347Z,54.9
2017-06-03T06:15:28.694Z,54.7
2017-06-03T06:16:39.046Z,55
2017-06-03T06:17:49.487Z,54.77
2017-06-03T06:18:59.852Z,55
2017-06-03T06:20:09.892Z,54.77
2017-06-03T06:21:20.271Z,55.95
2017-06-03T06:22:30.640Z,56.95
2017-06-03T06:23:41.093Z,56.89
2017-06-03T06:24:51.483Z,57.48
2017-06-03T06:26:01.825Z,56.1
2017-06-03T06:27:12.184Z,56.1
2017-06-03T06:28:22.234Z,56.6
2017-06-03T06:29:32.639Z,57.54
2017-06-03T06:30:43.006Z,56.25
2017-06-03T06:31:53.048Z,55.71
2017-06-03T06:33:03.402Z,55.91
2017-06-03T06:34:13.764Z,55.71
2017-06-03T06:35:24.161Z,55.71
2017-06-03T06:36:33.899Z,55.91
2017-06-03T06:37:43.936Z,55.94
2017-06-03T06:38:54.280Z,56.1
2017-06-03T06:40:04.639Z,55.52
2017-06-03T06:41:14.687Z,55.91
2017-06-03T06:42:25.044Z,55.71
2017-06-03T06:43:35.666Z,55.62
2017-06-03T06:44:46.050Z,55.62
2017-06-03T06:45:56.094Z,55.81
2017-06-03T06:47:06.523Z,55.71
2017-06-03T06:48:16.404Z,55.81
2017-06-03T06:49:26.760Z,56.3
2017-06-03T06:50:36.512Z,56.6
2017-06-03T06:51:46.875Z,56.08
2017-06-03T06:52:56.978Z,56.47
2017-06-03T06:54:07.338Z,56.27
2017-06-03T06:55:17.704Z,56.35
2017-06-03T06:56:27.751Z,56.76
2017-06-03T06:57:37.803Z,56.64
2017-06-03T06:58:47.905Z,56.64
2017-06-03T06:59:58.263Z,56.93
2017-06-03T07:01:08.607Z,56.54
2017-06-03T07:02:18.985Z,56.25
2017-06-03T07:03:29.536Z,56.54
2017-06-03T07:04:39.898Z,56.93
2017-06-03T07:05:50.251Z,56.51
2017-06-03T07:07:00.288Z,56.61
2017-06-03T07:08:10.646Z,57.03
2017-06-03T07:09:20.372Z,56.84
2017-06-03T07:10:30.718Z,57.39
2017-06-03T07:11:41.075Z,57.1
2017-06-03T07:12:51.429Z,56.68
2017-06-03T07:14:01.794Z,56.87
2017-06-03T07:15:12.155Z,57.36
2017-06-03T07:16:22.262Z,57.59
2017-06-03T07:17:32.294Z,56.71
2017-06-03T07:18:42.325Z,57.39
2017-06-03T07:19:52.372Z,57.29
2017-06-03T07:21:02.433Z,57.29
2017-06-03T07:22:12.861Z,57.39
2017-06-03T07:23:23.232Z,57.2
2017-06-03T07:24:33.590Z,57.49
2017-06-03T07:25:43.937Z,57.1
2017-06-03T07:26:54.294Z,57.2
2017-06-03T07:28:04.659Z,57.29
2017-06-03T07:29:15.058Z,57.49
2017-06-03T07:30:25.407Z,57
2017-06-03T07:31:35.778Z,57.26
2017-06-03T07:32:45.832Z,57.1
2017-06-03T07:33:55.882Z,56.81
2017-06-03T07:35:06.234Z,56.41
2017-06-03T07:36:16.595Z,56.61
2017-06-03T07:37:26.949Z,56.51
2017-06-03T07:38:37.304Z,56.54
2017-06-03T07:39:47.710Z,56.54
2017-06-03T07:40:58.074Z,56.84
2017-06-03T07:42:08.220Z,56.35
2017-06-03T07:43:18.267Z,56.74
2017-06-03T07:44:28.641Z,56.74
2017-06-03T07:45:38.761Z,56.74
2017-06-03T07:46:49.122Z,56.25
2017-06-03T07:47:59.478Z,56.25
2017-06-03T07:49:09.819Z,56.25
2017-06-03T07:50:20.195Z,56.27
2017-06-03T07:51:30.600Z,56.05
2017-06-03T07:52:40.647Z,56.37
2017-06-03T07:53:51.026Z,56.08
2017-06-03T07:55:01.378Z,56.27
2017-06-03T07:56:11.452Z,56.37
2017-06-03T07:57:21.890Z,56.2
2017-06-03T07:58:32.242Z,55.91
2017-06-03T07:59:42.592Z,55.81
2017-06-03T08:00:52.625Z,55.84
2017-06-03T08:02:02.660Z,55.84
2017-06-03T08:03:13.054Z,56.04
2017-06-03T08:04:23.402Z,56.23
2017-06-03T08:05:33.454Z,55.94
2017-06-03T08:06:43.815Z,55.84
2017-06-03T08:07:53.864Z,56.23
2017-06-03T08:09:04.269Z,56.23
2017-06-03T08:10:14.619Z,56.33
2017-06-03T08:11:24.965Z,56.72
2017-06-03T08:12:35.003Z,56.33
2017-06-03T08:13:45.366Z,56.23
2017-06-03T08:14:55.456Z,56.79
2017-06-03T08:16:05.512Z,56.82
2017-06-03T08:17:15.884Z,56.79
2017-06-03T08:18:26.244Z,56.4
2017-06-03T08:19:36.597Z,56.6
2017-06-03T08:20:47.030Z,56.6
2017-06-03T08:21:57.407Z,56.7
2017-06-03T08:23:07.776Z,56.52
2017-06-03T08:24:18.146Z,56.43
2017-06-03T08:25:28.254Z,56.72
2017-06-03T08:26:38.344Z,56.52
2017-06-03T08:27:48.709Z,56.23
2017-06-03T08:28:59.096Z,56.43
2017-06-03T08:30:09.153Z,56.46
2017-06-03T08:31:18.879Z,56.33
2017-06-03T08:32:29.303Z,56.26
2017-06-03T08:33:39.335Z,56.16
2017-06-03T08:34:49.390Z,56.16
2017-06-03T08:35:59.756Z,56.33
2017-06-03T08:37:10.135Z,56.85
2017-06-03T08:38:20.500Z,56.65
2017-06-03T08:39:30.859Z,56.56
2017-06-03T08:40:41.220Z,56.46
2017-06-03T08:41:51.271Z,56.56
2017-06-03T08:43:01.644Z,56.33
2017-06-03T08:44:12.053Z,56.36
2017-06-03T08:45:22.104Z,56.16
2017-06-03T08:46:32.166Z,56.65
2017-06-03T08:47:42.547Z,56.65
2017-06-03T08:48:52.916Z,56.16
2017-06-03T08:50:03.015Z,56.46
2017-06-03T08:51:13.072Z,56.16
2017-06-03T08:52:23.439Z,56.65
2017-06-03T08:53:33.788Z,56.26
2017-06-03T08:54:43.830Z,56.46
2017-06-03T08:55:54.242Z,56.46
2017-06-03T08:57:04.597Z,56.48
2017-06-03T08:58:14.650Z,56.36
2017-06-03T08:59:25.006Z,56.48
2017-06-03T09:00:34.741Z,56.77
2017-06-03T09:01:44.777Z,56.58
2017-06-03T09:02:55.134Z,56.46
2017-06-03T09:04:05.492Z,56.65
2017-06-03T09:05:15.847Z,57.04
2017-06-03T09:06:26.253Z,57.04
2017-06-03T09:07:36.604Z,56.75
2017-06-03T09:08:46.364Z,56.75
2017-06-03T09:09:56.728Z,56.95
2017-06-03T09:11:07.100Z,56.65
2017-06-03T09:12:17.454Z,56.87
2017-06-03T09:13:27.810Z,56.48
2017-06-03T09:14:37.543Z,56.77
2017-06-03T09:15:47.594Z,56.29
2017-06-03T09:16:57.631Z,56.77
2017-06-03T09:18:08.051Z,56.68
2017-06-03T09:19:18.414Z,56.48
2017-06-03T09:20:28.469Z,56.48
2017-06-03T09:21:38.836Z,56.48
2017-06-03T09:22:48.575Z,56.31
2017-06-03T09:23:58.992Z,56.61
2017-06-03T09:25:09.067Z,56.31
2017-06-03T09:26:19.145Z,56.51
2017-06-03T09:27:29.511Z,56.51
2017-06-03T09:28:39.872Z,56.21
2017-06-03T09:29:49.975Z,56.9
2017-06-03T09:30:59.717Z,56.31
2017-06-03T09:32:09.767Z,56.21
2017-06-03T09:33:20.126Z,56.51
2017-06-03T09:34:30.189Z,56.51
2017-06-03T09:35:40.602Z,56.31
2017-06-03T09:36:50.660Z,56.73
2017-06-03T09:38:01.040Z,56.21
2017-06-03T09:39:10.785Z,56.21
2017-06-03T09:40:21.155Z,56.51
2017-06-03T09:41:31.514Z,56.24
2017-06-03T09:42:41.869Z,56.41
2017-06-03T09:43:51.605Z,56.71
2017-06-03T09:45:01.339Z,56.54
2017-06-03T09:46:11.699Z,56.34
2017-06-03T09:47:21.749Z,56.73
2017-06-03T09:48:32.101Z,57.03
2017-06-03T09:49:42.478Z,56.24
2017-06-03T09:50:52.824Z,56.24
2017-06-03T09:52:03.206Z,56.34
2017-06-03T09:53:13.594Z,56.83
2017-06-03T09:54:23.335Z,56.24
2017-06-03T09:55:33.697Z,56.83
2017-06-03T09:56:44.081Z,56.54
2017-06-03T09:57:54.440Z,56.47
2017-06-03T09:59:04.563Z,56.57
2017-06-03T10:00:14.922Z,56.57
2017-06-03T10:01:25.296Z,56.57
2017-06-03T10:02:35.686Z,56.76
2017-06-03T10:04:04.681Z,56.57
2017-06-03T10:05:14.731Z,56.59
2017-06-03T10:06:25.097Z,56.49
2017-06-03T10:07:35.452Z,56.4
2017-06-03T10:08:45.813Z,56.3
2017-06-03T10:09:55.589Z,56.32
2017-06-03T10:11:05.949Z,56.32
2017-06-03T10:12:16.317Z,56.2
2017-06-03T10:13:26.660Z,56.42
2017-06-03T10:14:36.708Z,56.62
2017-06-03T10:15:46.834Z,56.42
2017-06-03T10:16:56.887Z,56.62
2017-06-03T10:18:06.936Z,56.42
2017-06-03T10:19:17.297Z,56.23
2017-06-03T10:20:27.671Z,56.03
2017-06-03T10:21:38.085Z,56.52
2017-06-03T10:22:48.137Z,56.23
2017-06-03T10:23:58.494Z,56.62
2017-06-03T10:25:08.540Z,56.62
2017-06-03T10:26:18.896Z,56.42
2017-06-03T10:27:29.288Z,56.52
2017-06-03T10:28:39.646Z,56.23
2017-06-03T10:29:49.689Z,56.13
2017-06-03T10:30:59.751Z,56.52
2017-06-03T10:32:10.117Z,56.45
2017-06-03T10:33:20.205Z,56.06
2017-06-03T10:34:30.612Z,56.35
2017-06-03T10:35:40.342Z,56.26
2017-06-03T10:36:50.712Z,55.99
2017-06-03T10:38:00.757Z,55.89
2017-06-03T10:39:11.159Z,56.38
2017-06-03T10:40:21.521Z,56.18
2017-06-03T10:41:31.867Z,56.18
2017-06-03T10:42:41.610Z,56.31
2017-06-03T10:43:51.976Z,55.99
2017-06-03T10:45:02.372Z,56.28
2017-06-03T10:46:12.408Z,56.38
2017-06-03T10:47:22.477Z,56.09
2017-06-03T10:48:32.223Z,56.28
2017-06-03T10:49:42.269Z,56.31
2017-06-03T10:50:52.677Z,56.31
2017-06-03T10:52:03.045Z,56.31
2017-06-03T10:53:13.100Z,56.31
2017-06-03T10:54:23.157Z,56.31
2017-06-03T10:55:33.526Z,56.31
2017-06-03T10:56:43.950Z,56.21
2017-06-03T10:57:54.314Z,56.21
2017-06-03T10:59:04.373Z,56.43
2017-06-03T11:00:14.742Z,56.24
2017-06-03T11:01:25.106Z,56.24
2017-06-03T11:02:35.499Z,56.34
2017-06-03T11:03:45.548Z,56.14
2017-06-03T11:04:55.611Z,56.34
2017-06-03T11:06:05.979Z,56.34
2017-06-03T11:07:16.333Z,56.34
2017-06-03T11:08:26.750Z,56.04
2017-06-03T11:09:36.786Z,56.11
2017-06-03T11:10:46.831Z,56.24
2017-06-03T11:11:57.186Z,56.34
2017-06-03T11:13:07.545Z,56.24
2017-06-03T11:14:17.643Z,56.24
2017-06-03T11:15:27.705Z,56.43
2017-06-03T11:16:38.066Z,55.85
2017-06-03T11:17:48.132Z,55.85
2017-06-03T11:18:58.487Z,55.85
2017-06-03T11:20:08.905Z,55.85
2017-06-03T11:21:18.958Z,55.94
2017-06-03T11:22:28.995Z,55.94
2017-06-03T11:23:39.358Z,56.04
2017-06-03T11:24:49.735Z,56.04
2017-06-03T11:26:00.146Z,56.04
2017-06-03T11:27:10.544Z,56.04
2017-06-03T11:28:20.611Z,55.85
2017-06-03T11:29:30.972Z,55.94
2017-06-03T11:30:41.007Z,55.94
2017-06-03T11:31:51.104Z,55.94
2017-06-03T11:33:01.483Z,55.94
2017-06-03T11:34:11.823Z,56.04
2017-06-03T11:35:22.189Z,56.24
2017-06-03T11:36:32.482Z,56.14
2017-06-03T11:37:42.836Z,56.14
2017-06-03T11:38:52.871Z,56.27
2017-06-03T11:40:03.247Z,55.77
2017-06-03T11:41:13.618Z,55.7
2017-06-03T11:42:23.982Z,55.6
2017-06-03T11:43:34.336Z,55.51
2017-06-03T11:44:44.693Z,55.9
2017-06-03T11:45:55.068Z,56.29
2017-06-03T11:47:05.414Z,56.1
2017-06-03T11:48:15.789Z,55.8
2017-06-03T11:49:25.571Z,55.83
2017-06-03T11:50:35.937Z,55.53
2017-06-03T11:51:46.318Z,55.73
2017-06-03T11:52:56.677Z,55.63
2017-06-03T11:54:06.723Z,55.73
2017-06-03T11:55:17.081Z,55.93
2017-06-03T11:56:27.459Z,56.22
2017-06-03T11:57:37.809Z,55.93
2017-06-03T11:58:47.853Z,56.32
2017-06-03T11:59:58.214Z,56.32
2017-06-03T12:01:08.643Z,56.71
2017-06-03T12:02:19.023Z,56.39
2017-06-03T12:03:29.412Z,56.02
2017-06-03T12:04:39.463Z,56.22
2017-06-03T12:05:49.814Z,56.32
2017-06-03T12:07:00.214Z,56.02
2017-06-03T12:08:10.580Z,56.12
2017-06-03T12:09:20.855Z,56.12
2017-06-03T12:10:31.157Z,55.93
2017-06-03T12:11:40.882Z,56.32
2017-06-03T12:12:50.981Z,56.22
2017-06-03T12:14:01.018Z,56.32
2017-06-03T12:15:11.065Z,56.22
2017-06-03T12:16:21.134Z,55.93
2017-06-03T12:17:31.195Z,56.12
2017-06-03T12:18:41.253Z,56.12
2017-06-03T12:19:51.615Z,55.83
2017-06-03T12:21:02.005Z,55.43
2017-06-03T12:22:12.363Z,55.36
2017-06-03T12:23:22.422Z,55.09
2017-06-03T12:24:32.159Z,55.39
2017-06-03T12:25:42.513Z,55.49
2017-06-03T12:26:52.564Z,55.68
2017-06-03T12:28:02.631Z,55.66
2017-06-03T12:29:12.682Z,55.36
2017-06-03T12:30:23.095Z,55.58
2017-06-03T12:31:33.468Z,55.29
2017-06-03T12:32:43.831Z,55.49
2017-06-03T12:33:53.887Z,55.22
2017-06-03T12:35:03.961Z,55.91
2017-06-03T12:36:14.372Z,56.77
2017-06-03T12:37:24.408Z,57.04
2017-06-03T12:38:34.776Z,57.6
2017-06-03T12:39:45.129Z,58.06
2017-06-03T12:40:55.485Z,57.84
2017-06-03T12:42:05.530Z,57.71
2017-06-03T12:43:15.587Z,58.01
2017-06-03T12:44:25.663Z,57.88
2017-06-03T12:45:35.725Z,57.98
2017-06-03T12:46:46.087Z,57.66
2017-06-03T12:47:56.518Z,56.9
2017-06-03T12:49:06.570Z,56.34
2017-06-03T12:50:16.316Z,56.07
2017-06-03T12:51:26.680Z,55.6
2017-06-03T12:52:36.746Z,55.33
2017-06-03T12:53:47.170Z,55.16
2017-06-03T12:54:57.527Z,55.29
2017-06-03T12:56:07.564Z,55.49
2017-06-03T12:57:17.915Z,55.49
2017-06-03T12:58:27.986Z,56.27
2017-06-03T12:59:38.408Z,56.45
2017-06-03T13:00:48.151Z,56.42
2017-06-03T13:01:58.528Z,56.49
2017-06-03T13:03:08.603Z,56.22
2017-06-03T13:04:18.961Z,56.25
2017-06-03T13:05:28.754Z,55.33
2017-06-03T13:06:38.505Z,55.16
2017-06-03T13:07:48.887Z,55.07
2017-06-03T13:08:59.222Z,55.49
2017-06-03T13:10:09.573Z,55.26
2017-06-03T13:11:19.307Z,54.99
2017-06-03T13:12:29.346Z,54.82
2017-06-03T13:13:39.399Z,54.82
2017-06-03T13:14:49.455Z,54.75
2017-06-03T13:15:59.801Z,54.85
2017-06-03T13:17:09.897Z,54.48
2017-06-03T13:18:19.951Z,55.27
2017-06-03T13:19:30.313Z,55.37
2017-06-03T13:20:40.669Z,54.97
2017-06-03T13:21:51.030Z,55.07
2017-06-03T13:23:01.096Z,55
2017-06-03T13:24:11.455Z,55.07
2017-06-03T13:25:21.816Z,55.3
2017-06-03T13:26:31.880Z,55.2
2017-06-03T13:27:42.275Z,55
2017-06-03T13:28:52.671Z,55.2
2017-06-03T13:30:02.416Z,54.97
2017-06-03T13:31:12.775Z,55.27
2017-06-03T13:32:22.818Z,55.57
2017-06-03T13:33:32.868Z,55.54
2017-06-03T13:34:42.365Z,55.24
2017-06-03T13:35:52.403Z,55.24
2017-06-03T13:37:02.978Z,55.24
2017-06-03T13:38:13.346Z,55.54
2017-06-03T13:39:23.723Z,55.74
2017-06-03T13:40:34.141Z,56.23
2017-06-03T13:41:44.184Z,56.9
2017-06-03T13:42:54.232Z,56.87
2017-06-03T13:44:04.595Z,57.23
2017-06-03T13:45:14.951Z,57.4
2017-06-03T13:46:25.369Z,58.06
2017-06-03T13:47:35.410Z,57.45
2017-06-03T13:48:45.762Z,57.71
2017-06-03T13:49:55.835Z,57.91
2017-06-03T13:51:05.575Z,57.91
2017-06-03T13:52:15.688Z,57.78
2017-06-03T13:53:26.029Z,57.29
2017-06-03T13:54:36.083Z,57.2
2017-06-03T13:55:46.453Z,57.2
2017-06-03T13:56:56.827Z,57.76
2017-06-03T13:58:07.190Z,57.66
2017-06-03T13:59:16.920Z,57.82
2017-06-03T14:00:27.013Z,57.63
2017-06-03T14:01:37.380Z,57.4
2017-06-03T14:02:47.464Z,57.8
2017-06-03T14:03:57.843Z,56.94
2017-06-03T14:05:08.233Z,56.58
2017-06-03T14:06:18.285Z,56.6
2017-06-03T14:07:28.650Z,56.21
2017-06-03T14:08:39.001Z,55.85
2017-06-03T14:09:49.373Z,56.14
2017-06-03T14:10:59.801Z,56.14
2017-06-03T14:12:09.849Z,56.16
2017-06-03T14:13:20.254Z,56.16
2017-06-03T14:14:29.993Z,55.87
2017-06-03T14:15:40.340Z,55.87
2017-06-03T14:16:50.084Z,55.87
2017-06-03T14:18:00.440Z,56.07
2017-06-03T14:19:10.828Z,56.37
2017-06-03T14:20:21.188Z,56.37
2017-06-03T14:21:31.547Z,56.27
2017-06-03T14:22:41.610Z,56.37
2017-06-03T14:23:51.667Z,56.46
2017-06-03T14:25:02.096Z,56.46
2017-06-03T14:26:12.155Z,56.16
2017-06-03T14:27:22.532Z,56.69
2017-06-03T14:28:32.891Z,56.37
2017-06-03T14:29:43.244Z,56.39
2017-06-03T14:30:53.343Z,56.16
2017-06-03T14:32:03.739Z,56.2
2017-06-03T14:33:13.480Z,56.2
2017-06-03T14:34:23.836Z,56.39
2017-06-03T14:35:33.892Z,56.32
2017-06-03T14:36:44.321Z,56.49
2017-06-03T14:37:54.680Z,56.22
2017-06-03T14:39:05.045Z,56.52
2017-06-03T14:40:15.100Z,56.42
2017-06-03T14:41:25.443Z,56.42
2017-06-03T14:42:35.493Z,56.62
2017-06-03T14:43:45.870Z,56.59
2017-06-03T14:44:55.591Z,56.69
2017-06-03T14:46:05.961Z,56.79
2017-06-03T14:47:16.332Z,56.56
2017-06-03T14:48:26.789Z,56.79
2017-06-03T14:49:37.162Z,56.56
2017-06-03T14:50:47.511Z,56.66
2017-06-03T14:51:57.571Z,56.85
2017-06-03T14:53:07.930Z,56.46
2017-06-03T14:54:18.309Z,56.66
2017-06-03T14:55:28.348Z,56.66
2017-06-03T14:56:38.708Z,56.95
2017-06-03T14:57:49.081Z,56.56
2017-06-03T14:58:59.444Z,56.56
2017-06-03T15:00:09.867Z,56.56
2017-06-03T15:01:20.227Z,56.85
2017-06-03T15:02:30.607Z,56.66
2017-06-03T15:03:40.667Z,56.85
2017-06-03T15:04:50.708Z,58.04
2017-06-03T15:06:01.140Z,57.91
2017-06-03T15:07:11.503Z,57.49
2017-06-03T15:08:21.867Z,57.86
2017-06-03T15:09:31.923Z,57.86
2017-06-03T15:10:41.970Z,58.64
2017-06-03T15:11:51.762Z,58.32
2017-06-03T15:13:02.135Z,58.61
2017-06-03T15:14:12.486Z,57.82
2017-06-03T15:15:22.554Z,57.6
2017-06-03T15:16:32.619Z,57.63
2017-06-03T15:17:43.016Z,57.6
2017-06-03T15:18:53.088Z,57.5
2017-06-03T15:20:03.466Z,57.4
2017-06-03T15:21:13.852Z,58
2017-06-03T15:22:23.898Z,57.7
2017-06-03T15:23:34.006Z,57.8
2017-06-03T15:24:44.055Z,57.7
2017-06-03T15:25:54.096Z,58.16
2017-06-03T15:27:04.461Z,58.06
2017-06-03T15:28:14.521Z,57.77
2017-06-03T15:29:24.885Z,57.87
2017-06-03T15:30:34.927Z,57.97
2017-06-03T15:31:44.980Z,57.48
2017-06-03T15:32:55.036Z,57.31
2017-06-03T15:34:05.392Z,57.21
2017-06-03T15:35:15.803Z,56.94
2017-06-03T15:36:25.855Z,57.14
2017-06-03T15:37:36.224Z,56.84
2017-06-03T15:38:46.611Z,57.01
2017-06-03T15:39:56.976Z,57.6